Flight Track Log - Related Links

Times and Time Zones

All times are in EDT time to prevent confusion due to time zone crossing. See the ASA704 flight status page for this flight to view local times or setup timezone preferences in your user account.

Time Position Orientation Groundspeed Altitude Reporting Facility
EDT Latitude Longitude Course Direction KTS MPH feet Rate Location/Type
Thu 04:39:03 PM 49.1667 -123.2167 176° South 150 173 1,100  Level Vancouver Center
Thu 04:40:03 PM 49.1667 -123.2833 270° West 210 242 3,000 2,200 Climbing Vancouver Center
Thu 04:41:03 PM 49.1500 -123.3833 256° West 230 265 5,500 2,000 Climbing Vancouver Center
Thu 04:42:03 PM 49.0833 -123.4500 213° Southwest 280 322 7,000 1,600 Climbing Vancouver Center
Thu 04:43:03 PM 49.0167 -123.5000 206° Southwest 270 311 8,700 1,750 Climbing Vancouver Center
Thu 04:44:00 PM 48.4561 -122.8900 176° South  Level Estimated
Thu 04:44:03 PM 48.9500 -123.5500 206° Southwest 300 345 10,500  Level Vancouver Center
Thu 04:45:03 PM 48.8500 -123.5500 180° South 340 391 12,200 2,100 Climbing Vancouver Center
Thu 04:46:03 PM 48.7500 -123.5167 168° South 370 426 14,700 2,500 Climbing Vancouver Center
Thu 04:47:03 PM 48.6500 -123.5000 174° South 380 437 17,200 2,350 Climbing Vancouver Center
Thu 04:48:03 PM 48.5333 -123.5000 180° South 390 449 19,400 2,200 Climbing Vancouver Center
Thu 04:49:03 PM 48.4167 -123.5000 180° South 400 460 21,600 2,060 Climbing Vancouver Center
Thu 04:50:17 PM 48.3000 -123.4869 176° South 415 478 24,000 1,822 Climbing Seattle Center
Thu 04:51:18 PM 48.1811 -123.4778 177° South 425 489 25,700 1,623 Climbing Seattle Center
Thu 04:52:19 PM 48.0614 -123.4703 178° South 430 495 27,300 1,525 Climbing Seattle Center
Thu 04:53:20 PM 47.9567 -123.4642 178° South 434 499 28,800 1,721 Climbing Seattle Center
Thu 04:54:21 PM 47.8164 -123.4558 178° South 428 493 30,800 1,785 Climbing Seattle Center
Thu 04:55:21 PM 47.7019 -123.4469 177° South 421 484 32,400 1,091 Climbing Seattle Center
Thu 04:56:22 PM 47.5900 -123.4394 177° South 411 473 33,000 295 Climbing Seattle Center
Thu 04:57:23 PM 47.4772 -123.4317 177° South 412 474 33,000  Level Seattle Center
Thu 04:58:24 PM 47.3658 -123.4239 177° South 409 471 33,000  Level Seattle Center
Thu 04:59:25 PM 47.2528 -123.4175 178° South 411 473 33,000  Level Seattle Center
Thu 05:00:25 PM 47.1408 -123.4089 177° South 408 470 33,000  Level Seattle Center
Thu 05:01:26 PM 47.0061 -123.4033 178° South 410 472 33,000  Level Seattle Center
Thu 05:02:27 PM 46.8939 -123.3969 178° South 409 471 33,000  Level Seattle Center
Thu 05:03:28 PM 46.7811 -123.3925 178° South 411 473 33,000  Level Seattle Center
Thu 05:04:29 PM 46.6692 -123.3878 178° South 408 470 33,000  Level Seattle Center
Thu 05:05:29 PM 46.5575 -123.3864 180° South 406 467 33,000  Level Seattle Center
Thu 05:06:30 PM 46.4394 -123.3794 178° South 410 472 33,000  Level Seattle Center
Thu 05:07:31 PM 46.3242 -123.3747 178° South 415 478 33,000  Level Seattle Center
Thu 05:08:32 PM 46.2103 -123.3689 178° South 411 473 33,000  Level Seattle Center
Thu 05:09:32 PM 46.0961 -123.3631 178° South 411 473 33,000  Level Seattle Center
Thu 05:10:33 PM 45.9819 -123.3583 178° South 412 474 33,000  Level Seattle Center
Thu 05:11:34 PM 45.8678 -123.3531 178° South 412 474 33,000  Level Seattle Center
Thu 05:12:35 PM 45.7542 -123.3492 179° South 409 471 33,000  Level Seattle Center
Thu 05:13:35 PM 45.6400 -123.3442 178° South 411 473 33,000  Level Seattle Center
Thu 05:14:36 PM 45.5261 -123.3392 178° South 410 472 33,000  Level Seattle Center
Thu 05:15:37 PM 45.4114 -123.3336 178° South 412 474 33,000  Level Seattle Center
Thu 05:16:38 PM 45.2975 -123.3269 178° South 410 472 33,000  Level Seattle Center
Thu 05:17:38 PM 45.1814 -123.3225 178° South 414 476 33,000  Level Seattle Center
Thu 05:18:39 PM 45.0647 -123.3172 178° South 418 481 33,000  Level Seattle Center
Thu 05:19:40 PM 44.9467 -123.3108 178° South 419 482 33,000  Level Seattle Center
Thu 05:20:41 PM 44.8267 -123.3050 178° South 424 488 33,000  Level Seattle Center
Thu 05:21:42 PM 44.7067 -123.3003 178° South 427 491 33,000  Level Seattle Center
Thu 05:22:42 PM 44.5883 -123.2961 179° South 424 488 33,000  Level Seattle Center
Thu 05:23:43 PM 44.4700 -123.2886 177° South 425 489 33,000  Level Seattle Center
Thu 05:24:44 PM 44.3278 -123.2594 172° South 430 495 33,000  Level Seattle Center
Thu 05:25:45 PM 44.2111 -123.2369 172° South 426 490 33,000  Level Seattle Center
Thu 05:26:45 PM 44.0917 -123.2169 173° South 429 494 33,000  Level Seattle Center
Thu 05:27:46 PM 43.9878 -123.1881 169° South 427 491 33,000  Level Seattle Center
Thu 05:28:47 PM 43.8719 -123.1497 167° South 429 494 33,000  Level Seattle Center
Thu 05:29:48 PM 43.7561 -123.1131 167° South 427 491 33,000  Level Seattle Center
Thu 05:30:48 PM 43.6169 -123.0689 167° South 427 491 33,000  Level Seattle Center
Thu 05:31:49 PM 43.5039 -123.0236 164° South 425 489 33,000  Level Seattle Center
Thu 05:32:50 PM 43.3975 -122.9439 151° Southeast 433 498 33,000  Level Seattle Center
Thu 05:33:51 PM 43.2897 -122.8692 153° Southeast 434 499 33,000  Level Seattle Center
Thu 05:34:51 PM 43.1744 -122.8292 166° South 426 490 33,000  Level Seattle Center
Thu 05:35:52 PM 43.0578 -122.7978 169° South 428 493 33,000  Level Seattle Center
Thu 05:36:53 PM 42.9417 -122.7636 168° South 427 491 33,000  Level Seattle Center
Thu 05:37:54 PM 42.8242 -122.7300 168° South 430 495 33,000  Level Seattle Center
Thu 05:38:54 PM 42.7067 -122.6958 168° South 430 495 33,000  Level Seattle Center
Thu 05:39:55 PM 42.5900 -122.6619 168° South 430 495 33,000  Level Seattle Center
Thu 05:40:56 PM 42.4733 -122.6303 169° South 429 494 33,000  Level Seattle Center
Thu 05:41:57 PM 42.3575 -122.5964 168° South 429 494 33,000  Level Seattle Center
Thu 05:42:58 PM 42.2417 -122.5636 168° South 429 494 33,000  Level Seattle Center
Thu 05:43:58 PM 42.1272 -122.5319 168° South 426 490 33,000  Level Seattle Center
Thu 05:44:59 PM 42.0125 -122.5000 168° South 426 490 33,000  Level Seattle Center
Thu 05:46:00 PM 41.8778 -122.4628 168° South 416 479 33,000  Level Seattle Center
Thu 05:47:01 PM 41.7647 -122.4322 169° South 417 480 33,000  Level Seattle Center
Thu 05:48:01 PM 41.6511 -122.4011 168° South 419 482 33,000  Level Seattle Center
Thu 05:49:02 PM 41.5372 -122.3683 168° South 421 484 33,000  Level Seattle Center
Thu 05:50:03 PM 41.4233 -122.3358 168° South 421 484 33,000  Level Seattle Center
Thu 05:51:04 PM 41.2981 -122.3028 169° South 418 481 33,000  Level Seattle Center
Thu 05:51:58 PM 41.2042 -122.2778 169° South 419 482 33,000  Level Oakland Center
Thu 05:52:59 PM 41.0886 -122.2450 168° South 423 487 33,000  Level Oakland Center
Thu 05:54:00 PM 40.9756 -122.2167 169° South 417 480 33,000  Level Oakland Center
Thu 05:55:01 PM 40.8617 -122.1850 168° South 417 480 33,000  Level Oakland Center
Thu 05:56:02 PM 40.7472 -122.1522 168° South 421 484 33,000  Level Oakland Center
Thu 05:57:03 PM 40.6319 -122.1214 169° South 424 488 33,000  Level Oakland Center
Thu 05:58:04 PM 40.4958 -122.0831 168° South 416 479 33,000  Level Oakland Center
Thu 05:59:05 PM 40.3808 -122.0519 168° South 418 481 33,000  Level Oakland Center
Thu 06:00:06 PM 40.2644 -122.0208 168° South 421 484 33,000  Level Oakland Center
Thu 06:01:07 PM 40.1469 -121.9908 169° South 424 488 33,000  Level Oakland Center
Thu 06:02:08 PM 40.0314 -121.9611 169° South 419 482 33,000  Level Oakland Center
Thu 06:03:09 PM 39.9153 -121.9311 169° South 422 486 33,000  Level Oakland Center
Thu 06:04:10 PM 39.8011 -121.9006 168° South 419 482 33,000  Level Oakland Center
Thu 06:05:11 PM 39.6867 -121.8711 169° South 418 481 33,000  Level Oakland Center
Thu 06:06:12 PM 39.5717 -121.8397 168° South 420 483 33,000  Level Oakland Center
Thu 06:07:13 PM 39.4511 -121.8075 168° South 417 480 33,000  Level Oakland Center
Thu 06:08:14 PM 39.3367 -121.7772 168° South 418 481 33,000  Level Oakland Center
Thu 06:09:15 PM 39.2222 -121.7486 169° South 420 483 33,000  Level Oakland Center
Thu 06:10:16 PM 39.1086 -121.7197 169° South 417 480 33,000  Level Oakland Center
Thu 06:11:17 PM 38.9953 -121.6919 169° South 417 480 33,000  Level Oakland Center
Thu 06:12:18 PM 38.8808 -121.6625 169° South 419 482 33,000  Level Oakland Center
Thu 06:13:19 PM 38.7675 -121.6344 169° South 418 481 33,000  Level Oakland Center
Thu 06:14:20 PM 38.6567 -121.6064 169° South 412 474 33,000  Level Oakland Center
Thu 06:15:21 PM 38.5439 -121.5778 169° South 417 480 33,000  Level Oakland Center
Thu 06:16:22 PM 38.4119 -121.5358 166° South 413 475 33,000  Level Oakland Center
Thu 06:17:23 PM 38.3081 -121.4733 155° Southeast 419 482 33,000  Level Oakland Center
Thu 06:18:24 PM 38.2039 -121.4122 155° Southeast 417 480 33,000  Level Oakland Center
Thu 06:19:25 PM 38.1006 -121.3503 155° Southeast 413 475 33,000  Level Oakland Center
Thu 06:20:26 PM 37.9950 -121.2897 156° South 416 479 33,000  Level Oakland Center
Thu 06:21:27 PM 37.8900 -121.2294 156° South 416 479 33,000  Level Oakland Center
Thu 06:22:28 PM 37.7839 -121.1672 155° Southeast 420 483 33,000  Level Oakland Center
Thu 06:23:29 PM 37.6775 -121.1053 155° Southeast 421 484 33,000  Level Oakland Center
Thu 06:24:30 PM 37.5703 -121.0444 156° South 424 488 33,000  Level Oakland Center
Thu 06:25:31 PM 37.4636 -120.9831 155° Southeast 422 486 33,000  Level Oakland Center
Thu 06:26:32 PM 37.3364 -120.9114 156° South 419 482 33,000  Level Oakland Center
Thu 06:27:33 PM 37.2303 -120.8522 156° South 417 480 33,000  Level Oakland Center
Thu 06:28:34 PM 37.1258 -120.7942 156° South 412 474 33,000  Level Oakland Center
Thu 06:29:35 PM 37.0200 -120.7342 156° South 415 478 33,000  Level Oakland Center
Thu 06:30:36 PM 36.9153 -120.6781 157° South 411 473 33,000  Level Oakland Center
Thu 06:31:37 PM 36.8089 -120.6211 157° South 414 476 33,000  Level Oakland Center
Thu 06:32:38 PM 36.7139 -120.5681 156° South 414 476 33,000  Level Oakland Center
Thu 06:33:39 PM 36.6089 -120.5075 155° Southeast 414 476 33,000  Level Oakland Center
Thu 06:34:39 PM 36.4836 -120.4397 156° South 411 473 33,000  Level Oakland Center
Thu 06:35:40 PM 36.3786 -120.3803 155° Southeast 414 476 33,000  Level Oakland Center
Thu 06:36:42 PM 36.2747 -120.3225 156° South 409 471 33,000  Level Oakland Center
Thu 06:37:43 PM 36.1700 -120.2650 156° South 411 473 33,000  Level Oakland Center
Thu 06:38:43 PM 36.0653 -120.2086 156° South 410 472 33,000  Level Oakland Center
Thu 06:39:45 PM 35.9606 -120.1503 156° South 410 472 33,000  Level Oakland Center
Thu 06:40:45 PM 35.8550 -120.0911 156° South 415 478 33,000  Level Oakland Center
Thu 06:41:46 PM 35.7511 -120.0333 156° South 411 473 33,000  Level Oakland Center
Thu 06:42:47 PM 35.6472 -119.9750 155° Southeast 410 472 33,000  Level Oakland Center
Thu 06:43:41 PM 35.5517 -119.8953 146° Southeast 418 481 33,000  Level Los Angeles Center
Thu 06:44:43 PM 35.4569 -119.8133 145° Southeast 414 476 33,000 -390 Level Los Angeles Center
Thu 06:45:44 PM 35.3628 -119.7319 145° Southeast 413 475 32,200 -1,122 Descending Los Angeles Center
Thu 06:46:46 PM 35.2678 -119.6500 145° Southeast 414 476 30,700 -1,415 Descending Los Angeles Center
Thu 06:47:47 PM 35.1722 -119.5692 145° Southeast 417 480 29,300 -1,415 Descending Los Angeles Center
Thu 06:48:49 PM 35.0767 -119.4875 145° Southeast 418 481 27,800 -1,366 Descending Los Angeles Center
Thu 06:49:50 PM 34.9814 -119.4069 145° Southeast 418 481 26,500 -1,131 Descending Los Angeles Center
Thu 06:50:51 PM 34.8914 -119.3300 145° Southeast 403 464 25,500 -976 Descending Los Angeles Center
Thu 06:51:53 PM 34.8039 -119.2567 145° Southeast 388 447 24,500 -976 Descending Los Angeles Center
Thu 06:52:54 PM 34.7153 -119.1828 146° Southeast 386 444 23,500 -1,024 Descending Los Angeles Center
Thu 06:53:56 PM 34.6169 -119.1003 145° Southeast 390 449 22,400 -1,171 Descending Los Angeles Center
Thu 06:54:57 PM 34.5306 -119.0272 145° Southeast 378 435 21,100 -1,567 Descending Los Angeles Center
Thu 06:56:10 PM 34.4469 -118.9569 145° Southeast 366 421 18,900 -2,178 Descending Los Angeles Center
Thu 06:57:12 PM 34.3492 -118.8794 147° Southeast 349 402 16,200 -2,537 Descending Los Angeles Center
Thu 06:58:13 PM 34.2572 -118.8458 163° South 346 398 13,700 -2,390 Descending Los Angeles Center
Thu 06:59:15 PM 34.1497 -118.8056 163° South 337 388 11,300 -1,790 Descending Los Angeles Center
Thu 07:00:17 PM 34.0603 -118.7719 163° South 325 374 10,000 -634 Descending Los Angeles Center
Thu 07:01:18 PM 34.0311 -118.6861 112° Southeast 290 334 10,000 -439 Level Los Angeles Center
Thu 07:02:20 PM 34.0228 -118.5914 96° East 285 328 9,100 -1,220 Descending Los Angeles Center
Thu 07:03:21 PM 34.0128 -118.4894 97° East 283 326 7,500 -1,073 Descending Los Angeles Center
Thu 07:04:23 PM 34.0156 -118.4117 88° East 270 311 6,900 -976 Descending Los Angeles Center
Thu 07:05:24 PM 34.0236 -118.3289 83° East 252 290 5,500 -1,475 Descending Los Angeles Center
Thu 07:06:25 PM 34.0317 -118.2514 83° East 238 274 3,900 -1,415 Descending Los Angeles Center
Thu 07:07:27 PM 34.0025 -118.2094 130° Southeast 209 241 2,600 -683 Descending Los Angeles Center
Thu 07:08:28 PM 33.9686 -118.2531 227° Southwest 181 208 2,500 -443 Descending Los Angeles Center
Thu 07:09:29 PM 33.9611 -118.3067 260° West 170 196 1,700 -732 Descending Los Angeles Center
Thu 07:10:31 PM 33.9572 -118.3553 265° West 158 182 1,000 -732 Descending Los Angeles Center
Thu 07:11:32 PM 33.9522 -118.4006 262° West 147 169 200 -787 Descending Los Angeles Center
Thu 07:13:00 PM 33.9425 -118.4081 228° Southwest  Level Estimated
Thu 07:20:00 PM 33.9425 -118.4081 228° Southwest  Level Estimated

Login

Don't have an account? Register now (free) for customized features, flight alerts, and more!